createdAt,value
2022-11-30T00:01:02.831Z,1021.31
2022-11-30T00:05:08.583Z,1021.28
2022-11-30T00:10:08.440Z,1021.34
2022-11-30T00:15:11.007Z,1021.32
2022-11-30T00:20:07.740Z,1021.26
2022-11-30T00:25:08.479Z,1021.23
2022-11-30T00:30:08.194Z,1021.22
2022-11-30T00:35:07.924Z,1021.17
2022-11-30T00:40:08.975Z,1021.21
2022-11-30T00:45:07.805Z,1021.24
2022-11-30T00:50:08.583Z,1021.22
2022-11-30T00:55:08.276Z,1021.2
2022-11-30T01:00:08.022Z,1021.27
2022-11-30T01:05:08.077Z,1021.36
2022-11-30T01:10:07.806Z,1021.34
2022-11-30T01:15:08.522Z,1021.42
2022-11-30T01:20:08.236Z,1021.45
2022-11-30T01:25:08.030Z,1021.44
2022-11-30T01:30:07.807Z,1021.51
2022-11-30T01:35:08.572Z,1021.51
2022-11-30T01:40:08.264Z,1021.55
2022-11-30T01:45:07.954Z,1021.55
2022-11-30T01:50:07.680Z,1021.62
2022-11-30T01:55:08.395Z,1021.59
2022-11-30T02:00:08.080Z,1021.53
2022-11-30T02:05:07.770Z,1021.48
2022-11-30T02:10:08.500Z,1021.45
2022-11-30T02:15:08.235Z,1021.53
2022-11-30T02:20:07.985Z,1021.55
2022-11-30T02:25:07.709Z,1021.53
2022-11-30T02:30:08.456Z,1021.64
2022-11-30T02:35:08.144Z,1021.63
2022-11-30T02:40:07.824Z,1021.61
2022-11-30T02:45:08.543Z,1021.65
2022-11-30T02:50:08.281Z,1021.65
2022-11-30T02:55:08.019Z,1021.74
2022-11-30T03:00:07.767Z,1021.68
2022-11-30T03:05:08.505Z,1021.68
2022-11-30T03:10:08.219Z,1021.68
2022-11-30T03:15:07.899Z,1021.8
2022-11-30T03:20:08.617Z,1021.74
2022-11-30T03:25:08.323Z,1021.81
2022-11-30T03:30:08.074Z,1021.79
2022-11-30T03:35:07.823Z,1021.79
2022-11-30T03:40:08.536Z,1021.88
2022-11-30T03:45:08.235Z,1021.81
2022-11-30T03:50:07.938Z,1021.87
2022-11-30T03:55:08.674Z,1021.92
2022-11-30T04:00:08.369Z,1021.99
2022-11-30T04:05:08.123Z,1021.94
2022-11-30T04:10:08.821Z,1021.97
2022-11-30T04:15:08.636Z,1021.98
2022-11-30T04:20:08.373Z,1021.92
2022-11-30T04:25:08.088Z,1021.85
2022-11-30T04:30:07.795Z,1021.87
2022-11-30T04:35:08.514Z,1021.8
2022-11-30T04:40:08.213Z,1021.73
2022-11-30T04:45:07.933Z,1021.7
2022-11-30T04:50:08.696Z,1021.7
2022-11-30T04:55:08.406Z,1021.77
2022-11-30T05:00:08.142Z,1021.76
2022-11-30T05:05:02.120Z,1021.76
2022-11-30T05:10:03.777Z,1021.8
2022-11-30T05:15:02.686Z,1021.81
2022-11-30T05:20:02.635Z,1021.83
2022-11-30T05:25:02.460Z,1021.9
2022-11-30T05:30:02.250Z,1021.85
2022-11-30T05:35:02.093Z,1021.96
2022-11-30T05:40:01.939Z,1021.88
2022-11-30T05:45:01.753Z,1022.04
2022-11-30T05:50:02.602Z,1022.07
2022-11-30T05:55:02.417Z,1022.31
2022-11-30T06:00:02.262Z,1022.37
2022-11-30T06:05:02.098Z,1022.47
2022-11-30T06:10:01.909Z,1022.44
2022-11-30T06:15:02.772Z,1022.53
2022-11-30T06:20:02.617Z,1022.5
2022-11-30T06:25:02.425Z,1022.42
2022-11-30T06:30:02.396Z,1022.48
2022-11-30T06:35:02.183Z,1022.54
2022-11-30T06:40:07.070Z,1022.59
2022-11-30T06:45:02.458Z,1022.56
2022-11-30T06:50:02.280Z,1022.6
2022-11-30T06:55:02.103Z,1022.68
2022-11-30T07:00:01.946Z,1022.61
2022-11-30T07:05:01.765Z,1022.69
2022-11-30T07:10:02.851Z,1022.73
2022-11-30T07:15:02.650Z,1022.73
2022-11-30T07:20:02.495Z,1022.84
2022-11-30T07:25:02.311Z,1022.88
2022-11-30T07:30:02.145Z,1022.91
2022-11-30T07:35:02.054Z,1022.97
2022-11-30T07:40:01.990Z,1022.97
2022-11-30T07:45:01.925Z,1023.0
2022-11-30T07:50:03.204Z,1023.02
2022-11-30T07:55:02.102Z,1023.08
2022-11-30T08:00:02.139Z,1023.08
2022-11-30T08:05:02.099Z,1023.1
2022-11-30T08:10:02.018Z,1023.07
2022-11-30T08:15:20.959Z,1023.09
2022-11-30T08:20:02.295Z,1023.11
2022-11-30T08:25:02.225Z,1023.1
2022-11-30T08:30:02.042Z,1023.16
2022-11-30T08:35:01.857Z,1023.24
2022-11-30T08:40:02.728Z,1023.27
2022-11-30T08:45:02.965Z,1023.28
2022-11-30T08:50:02.051Z,1023.38
2022-11-30T08:55:01.980Z,1023.46
2022-11-30T09:00:01.929Z,1023.47
2022-11-30T09:05:02.877Z,1023.47
2022-11-30T09:10:02.709Z,1023.57
2022-11-30T09:15:02.711Z,1023.54
2022-11-30T09:20:02.690Z,1023.62
2022-11-30T09:25:02.492Z,1023.59
2022-11-30T09:30:02.356Z,1023.64
2022-11-30T09:35:02.275Z,1023.66
2022-11-30T09:40:02.092Z,1023.65
2022-11-30T09:45:01.896Z,1023.75
2022-11-30T09:50:02.799Z,1023.72
2022-11-30T09:55:02.718Z,1023.72
2022-11-30T10:00:02.599Z,1023.66
2022-11-30T10:05:02.359Z,1023.67
2022-11-30T10:10:30.838Z,1023.63
2022-11-30T10:15:12.385Z,1023.61
2022-11-30T10:20:02.321Z,1023.49
2022-11-30T10:25:05.927Z,1023.46
2022-11-30T10:30:02.614Z,1023.52
2022-11-30T10:35:02.562Z,1023.41
2022-11-30T10:40:02.471Z,1023.37
2022-11-30T10:45:02.389Z,1023.38
2022-11-30T10:50:02.631Z,1023.39
2022-11-30T10:55:04.787Z,1023.37
2022-11-30T11:00:02.073Z,1023.34
2022-11-30T11:05:01.915Z,1023.43
2022-11-30T11:10:02.755Z,1023.39
2022-11-30T11:15:08.254Z,1023.24
2022-11-30T11:20:02.164Z,1023.2
2022-11-30T11:25:11.927Z,1023.26
2022-11-30T11:30:02.683Z,1023.32
2022-11-30T11:35:02.569Z,1023.41
2022-11-30T11:40:02.479Z,1023.36
2022-11-30T11:45:02.599Z,1023.52
2022-11-30T11:50:02.611Z,1023.45
2022-11-30T11:55:02.460Z,1023.49
2022-11-30T12:00:02.274Z,1023.43
2022-11-30T12:05:02.119Z,1023.47
2022-11-30T12:10:35.687Z,1023.42
2022-11-30T12:15:02.600Z,1023.42
2022-11-30T12:20:02.446Z,1023.48
2022-11-30T12:25:05.893Z,1023.44
2022-11-30T12:30:01.987Z,1023.43
2022-11-30T12:35:01.799Z,1023.38
2022-11-30T12:40:02.670Z,1023.39
2022-11-30T12:45:02.485Z,1023.49
2022-11-30T12:50:02.325Z,1023.46
2022-11-30T12:55:02.331Z,1023.51
2022-11-30T13:00:02.280Z,1023.37
2022-11-30T13:05:07.965Z,1023.4
2022-11-30T13:10:01.912Z,1023.45
2022-11-30T13:15:02.906Z,1023.45
2022-11-30T13:20:02.848Z,1023.45
2022-11-30T13:25:02.720Z,1023.55
2022-11-30T13:30:02.486Z,1023.6
2022-11-30T13:35:02.305Z,1023.55
2022-11-30T13:40:02.099Z,1023.53
2022-11-30T13:45:01.879Z,1023.6
2022-11-30T13:50:07.065Z,1023.56
2022-11-30T13:55:01.941Z,1023.53
2022-11-30T14:00:01.787Z,1023.66
2022-11-30T14:05:02.727Z,1023.62
2022-11-30T14:10:02.660Z,1023.68
2022-11-30T14:15:02.488Z,1023.71
2022-11-30T14:20:02.372Z,1023.74
2022-11-30T14:25:02.307Z,1023.79
2022-11-30T14:30:02.352Z,1023.82
2022-11-30T14:35:02.345Z,1023.9
2022-11-30T14:40:02.307Z,1023.94
2022-11-30T14:45:02.265Z,1023.96
2022-11-30T14:50:02.239Z,1023.93
2022-11-30T14:55:02.102Z,1023.98
2022-11-30T15:00:02.140Z,1023.98
2022-11-30T15:05:01.984Z,1024.06
2022-11-30T15:10:01.930Z,1024.07
2022-11-30T15:15:01.774Z,1024.07
2022-11-30T15:20:02.673Z,1024.02
2022-11-30T15:25:02.505Z,1024.06
2022-11-30T15:30:02.474Z,1023.98
2022-11-30T15:35:02.342Z,1024.07
2022-11-30T15:40:02.285Z,1023.96
2022-11-30T15:45:02.384Z,1023.96
2022-11-30T15:50:02.286Z,1024.04
2022-11-30T15:55:02.213Z,1024.14
2022-11-30T16:00:02.148Z,1024.13
2022-11-30T16:05:13.763Z,1024.18
2022-11-30T16:10:12.327Z,1024.22
2022-11-30T16:15:02.219Z,1024.32
2022-11-30T16:20:02.067Z,1024.34
2022-11-30T16:25:01.935Z,1024.37
2022-11-30T16:30:01.740Z,1024.42
2022-11-30T16:35:02.605Z,1024.48
2022-11-30T16:40:02.430Z,1024.48
2022-11-30T16:45:02.456Z,1024.6
2022-11-30T16:50:02.275Z,1024.52
2022-11-30T16:55:02.129Z,1024.58
2022-11-30T17:00:01.946Z,1024.6
2022-11-30T17:05:01.808Z,1024.66
2022-11-30T17:10:02.604Z,1024.7
2022-11-30T17:15:02.424Z,1024.71
2022-11-30T17:20:02.322Z,1024.75
2022-11-30T17:25:02.214Z,1024.74
2022-11-30T17:30:02.029Z,1024.75
2022-11-30T17:35:01.938Z,1024.75
2022-11-30T17:40:01.793Z,1024.79
2022-11-30T17:45:02.643Z,1024.84
2022-11-30T17:50:02.515Z,1024.86
2022-11-30T17:55:02.285Z,1024.97
2022-11-30T18:00:02.178Z,1025.0
2022-11-30T18:05:01.985Z,1025.0
2022-11-30T18:10:01.779Z,1025.02
2022-11-30T18:15:02.699Z,1025.04
2022-11-30T18:20:02.650Z,1025.02
2022-11-30T18:25:02.609Z,1025.07
2022-11-30T18:30:07.354Z,1025.07
2022-11-30T18:35:02.886Z,1025.11
2022-11-30T18:40:02.785Z,1025.11
2022-11-30T18:45:02.723Z,1025.11
2022-11-30T18:50:02.677Z,1025.18
2022-11-30T18:55:02.548Z,1025.21
2022-11-30T19:00:02.399Z,1025.23
2022-11-30T19:05:02.282Z,1025.23
2022-11-30T19:10:02.105Z,1025.29
2022-11-30T19:15:01.925Z,1025.35
2022-11-30T19:20:02.816Z,1025.32
2022-11-30T19:25:02.677Z,1025.26
2022-11-30T19:30:02.707Z,1025.27
2022-11-30T19:35:02.605Z,1025.31
2022-11-30T19:40:02.594Z,1025.36
2022-11-30T19:45:02.578Z,1025.39
2022-11-30T19:50:02.470Z,1025.39
2022-11-30T19:55:02.254Z,1025.4
2022-11-30T20:00:02.173Z,1025.45
2022-11-30T20:05:02.113Z,1025.47
2022-11-30T20:10:01.992Z,1025.51
2022-11-30T20:15:01.958Z,1025.55
2022-11-30T20:20:01.957Z,1025.58
2022-11-30T20:25:01.798Z,1025.61
2022-11-30T20:30:02.595Z,1025.64
2022-11-30T20:35:02.522Z,1025.6
2022-11-30T20:40:02.514Z,1025.59
2022-11-30T20:45:02.418Z,1025.58
2022-11-30T20:50:02.271Z,1025.63
2022-11-30T20:55:02.040Z,1025.77
2022-11-30T21:00:02.037Z,1025.73
2022-11-30T21:05:01.926Z,1025.76
2022-11-30T21:10:02.927Z,1025.8
2022-11-30T21:15:02.909Z,1025.75
2022-11-30T21:20:02.809Z,1025.92
2022-11-30T21:25:02.785Z,1025.83
2022-11-30T21:30:02.816Z,1025.91
2022-11-30T21:35:02.779Z,1025.86
2022-11-30T21:40:02.611Z,1025.81
2022-11-30T21:45:02.536Z,1025.82
2022-11-30T21:50:02.356Z,1025.85
2022-11-30T21:55:02.375Z,1025.78
2022-11-30T22:00:02.263Z,1025.87
2022-11-30T22:05:14.982Z,1025.85
2022-11-30T22:10:07.664Z,1025.84
2022-11-30T22:15:08.399Z,1025.82
2022-11-30T22:20:08.132Z,1025.76
2022-11-30T22:25:07.821Z,1025.88
2022-11-30T22:30:08.633Z,1025.81
2022-11-30T22:35:08.404Z,1025.84
2022-11-30T22:40:08.136Z,1025.85
2022-11-30T22:45:07.872Z,1025.89
2022-11-30T22:50:08.659Z,1025.91
2022-11-30T22:55:08.596Z,1025.96
2022-11-30T23:00:08.394Z,1025.92
2022-11-30T23:05:08.216Z,1025.85
2022-11-30T23:10:08.029Z,1025.96
2022-11-30T23:15:07.904Z,1025.92
2022-11-30T23:20:08.640Z,1025.85
2022-11-30T23:25:08.333Z,1025.87
2022-11-30T23:30:08.055Z,1025.98
2022-11-30T23:35:07.778Z,1025.88
2022-11-30T23:40:08.506Z,1025.9
2022-11-30T23:45:08.220Z,1026.03
2022-11-30T23:50:07.949Z,1025.92
2022-11-30T23:55:07.661Z,1025.86
